sensor_id;sensor_type;location;lat;lon;timestamp;temperature;humidity
72114;SHT31;59989;46.220;19.888;2022-09-21T00:01:59;8.53;94.56
72114;SHT31;59989;46.220;19.888;2022-09-21T00:05:02;8.57;94.61
72114;SHT31;59989;46.220;19.888;2022-09-21T00:08:06;8.64;94.49
72114;SHT31;59989;46.220;19.888;2022-09-21T00:11:13;8.71;94.40
72114;SHT31;59989;46.220;19.888;2022-09-21T00:14:16;8.76;94.17
72114;SHT31;59989;46.220;19.888;2022-09-21T00:17:19;8.78;94.19
72114;SHT31;59989;46.220;19.888;2022-09-21T00:20:23;8.84;93.89
72114;SHT31;59989;46.220;19.888;2022-09-21T00:23:26;8.88;94.04
72114;SHT31;59989;46.220;19.888;2022-09-21T00:26:28;8.93;93.87
72114;SHT31;59989;46.220;19.888;2022-09-21T00:29:31;9.01;93.32
72114;SHT31;59989;46.220;19.888;2022-09-21T00:32:35;9.05;93.35
72114;SHT31;59989;46.220;19.888;2022-09-21T00:35:38;9.05;93.33
72114;SHT31;59989;46.220;19.888;2022-09-21T00:38:41;9.08;93.22
72114;SHT31;59989;46.220;19.888;2022-09-21T00:41:43;9.08;93.30
72114;SHT31;59989;46.220;19.888;2022-09-21T00:44:46;9.09;93.22
72114;SHT31;59989;46.220;19.888;2022-09-21T00:47:50;9.08;93.33
72114;SHT31;59989;46.220;19.888;2022-09-21T00:50:56;9.13;93.46
72114;SHT31;59989;46.220;19.888;2022-09-21T00:54:03;9.18;93.46
72114;SHT31;59989;46.220;19.888;2022-09-21T00:57:06;9.22;93.21
72114;SHT31;59989;46.220;19.888;2022-09-21T01:00:09;9.26;93.30
72114;SHT31;59989;46.220;19.888;2022-09-21T01:03:12;9.26;93.15
72114;SHT31;59989;46.220;19.888;2022-09-21T01:06:19;9.29;93.11
72114;SHT31;59989;46.220;19.888;2022-09-21T01:09:22;9.29;93.13
72114;SHT31;59989;46.220;19.888;2022-09-21T01:35:38;9.26;92.72
72114;SHT31;59989;46.220;19.888;2022-09-21T01:38:47;9.25;93.03
72114;SHT31;59989;46.220;19.888;2022-09-21T01:41:55;9.19;93.19
72114;SHT31;59989;46.220;19.888;2022-09-21T01:45:01;9.15;93.10
72114;SHT31;59989;46.220;19.888;2022-09-21T01:48:04;9.12;92.99
72114;SHT31;59989;46.220;19.888;2022-09-21T01:51:09;9.09;93.09
72114;SHT31;59989;46.220;19.888;2022-09-21T01:54:21;9.11;93.27
72114;SHT31;59989;46.220;19.888;2022-09-21T01:57:41;9.09;93.03
72114;SHT31;59989;46.220;19.888;2022-09-21T02:00:46;9.06;93.09
72114;SHT31;59989;46.220;19.888;2022-09-21T02:04:10;9.06;93.07
72114;SHT31;59989;46.220;19.888;2022-09-21T02:07:15;9.05;93.44
72114;SHT31;59989;46.220;19.888;2022-09-21T02:10:21;9.04;93.56
72114;SHT31;59989;46.220;19.888;2022-09-21T02:13:28;9.01;93.70
72114;SHT31;59989;46.220;19.888;2022-09-21T02:16:36;9.01;93.75
72114;SHT31;59989;46.220;19.888;2022-09-21T02:20:18;8.98;93.77
72114;SHT31;59989;46.220;19.888;2022-09-21T02:23:32;8.95;93.74
72114;SHT31;59989;46.220;19.888;2022-09-21T02:26:44;8.92;93.58
72114;SHT31;59989;46.220;19.888;2022-09-21T02:33:22;8.91;93.72
72114;SHT31;59989;46.220;19.888;2022-09-21T02:36:46;8.88;93.92
72114;SHT31;59989;46.220;19.888;2022-09-21T02:40:43;8.84;93.89
72114;SHT31;59989;46.220;19.888;2022-09-21T02:46:49;8.84;94.06
72114;SHT31;59989;46.220;19.888;2022-09-21T02:50:02;8.79;93.98
72114;SHT31;59989;46.220;19.888;2022-09-21T02:53:06;8.82;94.20
72114;SHT31;59989;46.220;19.888;2022-09-21T02:56:11;8.82;94.11
72114;SHT31;59989;46.220;19.888;2022-09-21T02:59:14;8.84;94.27
72114;SHT31;59989;46.220;19.888;2022-09-21T03:02:18;8.81;94.13
72114;SHT31;59989;46.220;19.888;2022-09-21T03:05:20;8.76;94.16
72114;SHT31;59989;46.220;19.888;2022-09-21T03:08:23;8.75;94.15
72114;SHT31;59989;46.220;19.888;2022-09-21T03:11:25;8.74;94.23
72114;SHT31;59989;46.220;19.888;2022-09-21T03:14:28;8.71;94.35
72114;SHT31;59989;46.220;19.888;2022-09-21T03:17:30;8.69;94.46
72114;SHT31;59989;46.220;19.888;2022-09-21T03:20:36;8.71;94.53
72114;SHT31;59989;46.220;19.888;2022-09-21T03:23:39;8.71;94.35
72114;SHT31;59989;46.220;19.888;2022-09-21T03:26:42;8.74;94.55
72114;SHT31;59989;46.220;19.888;2022-09-21T03:29:45;8.71;94.43
72114;SHT31;59989;46.220;19.888;2022-09-21T03:32:48;8.74;94.52
72114;SHT31;59989;46.220;19.888;2022-09-21T03:35:51;8.72;94.57
72114;SHT31;59989;46.220;19.888;2022-09-21T03:38:54;8.75;94.62
72114;SHT31;59989;46.220;19.888;2022-09-21T03:41:57;8.76;94.69
72114;SHT31;59989;46.220;19.888;2022-09-21T03:44:59;8.81;94.68
72114;SHT31;59989;46.220;19.888;2022-09-21T03:48:02;8.79;94.59
72114;SHT31;59989;46.220;19.888;2022-09-21T03:51:05;8.78;94.47
72114;SHT31;59989;46.220;19.888;2022-09-21T03:54:08;8.79;94.59
72114;SHT31;59989;46.220;19.888;2022-09-21T03:57:10;8.82;94.65
72114;SHT31;59989;46.220;19.888;2022-09-21T04:00:13;8.78;94.38
72114;SHT31;59989;46.220;19.888;2022-09-21T04:03:15;8.75;94.43
72114;SHT31;59989;46.220;19.888;2022-09-21T04:06:18;8.75;94.52
72114;SHT31;59989;46.220;19.888;2022-09-21T04:09:20;8.74;94.49
72114;SHT31;59989;46.220;19.888;2022-09-21T04:12:22;8.74;94.45
72114;SHT31;59989;46.220;19.888;2022-09-21T04:15:25;8.75;94.41
72114;SHT31;59989;46.220;19.888;2022-09-21T04:18:28;8.76;94.33
72114;SHT31;59989;46.220;19.888;2022-09-21T04:21:30;8.75;94.47
72114;SHT31;59989;46.220;19.888;2022-09-21T04:24:33;8.75;94.44
72114;SHT31;59989;46.220;19.888;2022-09-21T04:27:36;8.71;94.60
72114;SHT31;59989;46.220;19.888;2022-09-21T04:30:38;8.74;94.59
72114;SHT31;59989;46.220;19.888;2022-09-21T04:33:41;8.72;94.60
72114;SHT31;59989;46.220;19.888;2022-09-21T04:36:43;8.71;94.49
72114;SHT31;59989;46.220;19.888;2022-09-21T04:39:47;8.71;94.63
72114;SHT31;59989;46.220;19.888;2022-09-21T04:42:50;8.71;94.68
72114;SHT31;59989;46.220;19.888;2022-09-21T04:45:54;8.72;94.61
72114;SHT31;59989;46.220;19.888;2022-09-21T04:48:56;8.74;94.66
72114;SHT31;59989;46.220;19.888;2022-09-21T04:51:58;8.79;94.67
72114;SHT31;59989;46.220;19.888;2022-09-21T04:55:01;8.78;94.64
72114;SHT31;59989;46.220;19.888;2022-09-21T04:58:03;8.78;94.58
72114;SHT31;59989;46.220;19.888;2022-09-21T05:01:06;8.78;94.43
72114;SHT31;59989;46.220;19.888;2022-09-21T05:04:09;8.79;94.38
72114;SHT31;59989;46.220;19.888;2022-09-21T05:07:11;8.79;94.36
72114;SHT31;59989;46.220;19.888;2022-09-21T05:10:14;8.85;94.38
72114;SHT31;59989;46.220;19.888;2022-09-21T05:13:17;8.82;94.21
72114;SHT31;59989;46.220;19.888;2022-09-21T05:16:21;8.86;94.30
72114;SHT31;59989;46.220;19.888;2022-09-21T05:19:23;8.89;94.22
72114;SHT31;59989;46.220;19.888;2022-09-21T05:22:26;8.91;94.22
72114;SHT31;59989;46.220;19.888;2022-09-21T05:25:29;8.91;94.29
72114;SHT31;59989;46.220;19.888;2022-09-21T05:28:32;8.93;94.25
72114;SHT31;59989;46.220;19.888;2022-09-21T05:39:10;9.12;93.98
72114;SHT31;59989;46.220;19.888;2022-09-21T05:42:13;9.20;93.72
72114;SHT31;59989;46.220;19.888;2022-09-21T05:45:17;9.23;93.60
72114;SHT31;59989;46.220;19.888;2022-09-21T05:48:38;9.26;93.40
72114;SHT31;59989;46.220;19.888;2022-09-21T05:52:04;9.32;93.34
72114;SHT31;59989;46.220;19.888;2022-09-21T05:58:51;9.40;93.19
72114;SHT31;59989;46.220;19.888;2022-09-21T06:05:22;9.46;93.21
72114;SHT31;59989;46.220;19.888;2022-09-21T06:08:25;9.54;92.71
72114;SHT31;59989;46.220;19.888;2022-09-21T06:11:28;9.64;92.58
72114;SHT31;59989;46.220;19.888;2022-09-21T06:14:30;9.74;92.36
72114;SHT31;59989;46.220;19.888;2022-09-21T06:17:33;9.81;92.17
72114;SHT31;59989;46.220;19.888;2022-09-21T06:20:35;9.94;92.01
72114;SHT31;59989;46.220;19.888;2022-09-21T06:23:38;9.90;92.16
72114;SHT31;59989;46.220;19.888;2022-09-21T06:26:40;9.97;92.09
72114;SHT31;59989;46.220;19.888;2022-09-21T06:29:44;9.95;92.00
72114;SHT31;59989;46.220;19.888;2022-09-21T06:32:46;10.05;92.08
72114;SHT31;59989;46.220;19.888;2022-09-21T06:35:56;10.12;91.91
72114;SHT31;59989;46.220;19.888;2022-09-21T06:38:59;10.19;91.78
72114;SHT31;59989;46.220;19.888;2022-09-21T06:42:01;10.32;91.27
72114;SHT31;59989;46.220;19.888;2022-09-21T06:45:04;10.46;90.86
72114;SHT31;59989;46.220;19.888;2022-09-21T06:48:07;10.57;90.77
72114;SHT31;59989;46.220;19.888;2022-09-21T06:51:09;10.73;90.42
72114;SHT31;59989;46.220;19.888;2022-09-21T06:54:12;10.76;90.07
72114;SHT31;59989;46.220;19.888;2022-09-21T06:57:14;10.83;89.98
72114;SHT31;59989;46.220;19.888;2022-09-21T07:00:17;10.97;89.84
72114;SHT31;59989;46.220;19.888;2022-09-21T07:03:19;11.03;89.19
72114;SHT31;59989;46.220;19.888;2022-09-21T07:06:22;11.14;88.59
72114;SHT31;59989;46.220;19.888;2022-09-21T07:09:24;11.18;88.47
72114;SHT31;59989;46.220;19.888;2022-09-21T07:12:46;11.22;88.61
72114;SHT31;59989;46.220;19.888;2022-09-21T07:15:50;11.28;88.68
72114;SHT31;59989;46.220;19.888;2022-09-21T07:18:54;11.25;88.36
72114;SHT31;59989;46.220;19.888;2022-09-21T07:21:58;11.25;88.05
72114;SHT31;59989;46.220;19.888;2022-09-21T07:25:01;11.40;88.25
72114;SHT31;59989;46.220;19.888;2022-09-21T07:28:03;11.55;87.30
72114;SHT31;59989;46.220;19.888;2022-09-21T07:31:15;11.70;86.44
72114;SHT31;59989;46.220;19.888;2022-09-21T07:34:18;11.94;86.38
72114;SHT31;59989;46.220;19.888;2022-09-21T07:37:22;12.06;85.00
72114;SHT31;59989;46.220;19.888;2022-09-21T07:40:25;12.10;84.38
72114;SHT31;59989;46.220;19.888;2022-09-21T07:43:28;12.30;84.08
72114;SHT31;59989;46.220;19.888;2022-09-21T07:46:30;12.42;84.14
72114;SHT31;59989;46.220;19.888;2022-09-21T07:49:33;12.49;83.18
72114;SHT31;59989;46.220;19.888;2022-09-21T07:52:36;12.40;83.37
72114;SHT31;59989;46.220;19.888;2022-09-21T07:55:38;12.61;82.77
72114;SHT31;59989;46.220;19.888;2022-09-21T07:58:41;12.66;83.21
72114;SHT31;59989;46.220;19.888;2022-09-21T08:02:03;12.99;82.72
72114;SHT31;59989;46.220;19.888;2022-09-21T08:05:06;12.88;81.60
72114;SHT31;59989;46.220;19.888;2022-09-21T08:08:08;12.95;81.98
72114;SHT31;59989;46.220;19.888;2022-09-21T08:11:11;13.07;81.86
72114;SHT31;59989;46.220;19.888;2022-09-21T08:14:13;13.27;79.44
72114;SHT31;59989;46.220;19.888;2022-09-21T08:17:26;14.30;76.91
72114;SHT31;59989;46.220;19.888;2022-09-21T08:20:28;14.71;76.36
72114;SHT31;59989;46.220;19.888;2022-09-21T08:23:31;14.63;74.20
72114;SHT31;59989;46.220;19.888;2022-09-21T08:26:34;14.41;74.77
72114;SHT31;59989;46.220;19.888;2022-09-21T08:29:37;14.34;74.50
72114;SHT31;59989;46.220;19.888;2022-09-21T08:32:40;14.33;74.29
72114;SHT31;59989;46.220;19.888;2022-09-21T08:35:53;14.70;73.79
72114;SHT31;59989;46.220;19.888;2022-09-21T08:38:56;14.77;71.87
72114;SHT31;59989;46.220;19.888;2022-09-21T08:45:14;14.68;72.31
72114;SHT31;59989;46.220;19.888;2022-09-21T08:48:22;14.67;71.39
72114;SHT31;59989;46.220;19.888;2022-09-21T08:51:35;14.89;70.63
72114;SHT31;59989;46.220;19.888;2022-09-21T08:57:54;15.24;70.19
72114;SHT31;59989;46.220;19.888;2022-09-21T09:04:44;15.15;68.40
72114;SHT31;59989;46.220;19.888;2022-09-21T09:11:40;15.40;69.11
72114;SHT31;59989;46.220;19.888;2022-09-21T09:21:37;16.11;63.36
72114;SHT31;59989;46.220;19.888;2022-09-21T09:24:41;16.56;62.59
72114;SHT31;59989;46.220;19.888;2022-09-21T09:27:45;16.94;59.26
72114;SHT31;59989;46.220;19.888;2022-09-21T09:30:56;17.30;57.78
72114;SHT31;59989;46.220;19.888;2022-09-21T09:34:29;17.02;59.03
72114;SHT31;59989;46.220;19.888;2022-09-21T09:37:35;17.49;61.22
72114;SHT31;59989;46.220;19.888;2022-09-21T09:40:52;17.14;61.55
72114;SHT31;59989;46.220;19.888;2022-09-21T09:50:35;15.82;64.55
72114;SHT31;59989;46.220;19.888;2022-09-21T09:53:38;15.60;65.58
72114;SHT31;59989;46.220;19.888;2022-09-21T09:56:42;15.46;64.68
72114;SHT31;59989;46.220;19.888;2022-09-21T09:59:51;15.91;62.44
72114;SHT31;59989;46.220;19.888;2022-09-21T10:02:57;17.57;58.07
72114;SHT31;59989;46.220;19.888;2022-09-21T10:06:00;17.39;59.48
72114;SHT31;59989;46.220;19.888;2022-09-21T10:09:24;17.31;57.43
72114;SHT31;59989;46.220;19.888;2022-09-21T10:12:27;18.13;54.97
72114;SHT31;59989;46.220;19.888;2022-09-21T10:15:31;17.21;57.29
72114;SHT31;59989;46.220;19.888;2022-09-21T10:21:45;15.76;61.54
72114;SHT31;59989;46.220;19.888;2022-09-21T10:24:53;17.35;56.60
72114;SHT31;59989;46.220;19.888;2022-09-21T10:27:57;17.89;54.25
72114;SHT31;59989;46.220;19.888;2022-09-21T10:34:14;18.81;53.73
72114;SHT31;59989;46.220;19.888;2022-09-21T10:37:36;18.45;54.45
72114;SHT31;59989;46.220;19.888;2022-09-21T10:40:42;19.43;51.26
72114;SHT31;59989;46.220;19.888;2022-09-21T10:43:46;20.18;50.57
72114;SHT31;59989;46.220;19.888;2022-09-21T10:46:52;20.24;48.74
72114;SHT31;59989;46.220;19.888;2022-09-21T10:49:56;20.79;47.94
72114;SHT31;59989;46.220;19.888;2022-09-21T10:56:16;19.95;48.33
72114;SHT31;59989;46.220;19.888;2022-09-21T10:59:25;20.63;48.68
72114;SHT31;59989;46.220;19.888;2022-09-21T11:02:35;18.60;51.24
72114;SHT31;59989;46.220;19.888;2022-09-21T11:05:40;17.88;55.07
72114;SHT31;59989;46.220;19.888;2022-09-21T11:08:54;17.21;58.96
72114;SHT31;59989;46.220;19.888;2022-09-21T11:19:00;15.98;63.00
72114;SHT31;59989;46.220;19.888;2022-09-21T11:22:17;16.53;62.30
72114;SHT31;59989;46.220;19.888;2022-09-21T11:29:02;19.47;49.58
72114;SHT31;59989;46.220;19.888;2022-09-21T11:32:21;19.50;50.15
72114;SHT31;59989;46.220;19.888;2022-09-21T11:39:15;21.04;44.92
72114;SHT31;59989;46.220;19.888;2022-09-21T11:46:13;22.20;42.61
72114;SHT31;59989;46.220;19.888;2022-09-21T12:16:13;16.11;61.36
72114;SHT31;59989;46.220;19.888;2022-09-21T12:19:58;16.08;66.86
72114;SHT31;59989;46.220;19.888;2022-09-21T12:23:11;16.05;67.02
72114;SHT31;59989;46.220;19.888;2022-09-21T12:26:19;15.91;67.28
72114;SHT31;59989;46.220;19.888;2022-09-21T12:29:46;15.66;67.47
72114;SHT31;59989;46.220;19.888;2022-09-21T12:32:57;15.60;69.12
72114;SHT31;59989;46.220;19.888;2022-09-21T12:39:57;15.18;66.67
72114;SHT31;59989;46.220;19.888;2022-09-21T12:43:07;15.11;66.51
72114;SHT31;59989;46.220;19.888;2022-09-21T12:46:57;15.22;67.44
72114;SHT31;59989;46.220;19.888;2022-09-21T12:49:42;15.12;67.70
72114;SHT31;59989;46.220;19.888;2022-09-21T12:52:46;15.16;68.28
72114;SHT31;59989;46.220;19.888;2022-09-21T12:55:57;15.19;67.64
72114;SHT31;59989;46.220;19.888;2022-09-21T13:02:20;14.71;72.22
72114;SHT31;59989;46.220;19.888;2022-09-21T13:08:32;14.26;69.55
72114;SHT31;59989;46.220;19.888;2022-09-21T13:11:50;14.08;69.52
72114;SHT31;59989;46.220;19.888;2022-09-21T13:15:00;13.97;69.80
72114;SHT31;59989;46.220;19.888;2022-09-21T13:18:06;13.99;69.32
72114;SHT31;59989;46.220;19.888;2022-09-21T13:21:18;14.01;69.34
72114;SHT31;59989;46.220;19.888;2022-09-21T13:24:27;13.94;67.20
72114;SHT31;59989;46.220;19.888;2022-09-21T13:27:55;14.02;67.37
72114;SHT31;59989;46.220;19.888;2022-09-21T13:34:41;14.12;72.63
72114;SHT31;59989;46.220;19.888;2022-09-21T13:41:26;14.13;71.54
72114;SHT31;59989;46.220;19.888;2022-09-21T13:44:48;14.26;70.62
72114;SHT31;59989;46.220;19.888;2022-09-21T13:47:54;14.56;70.49
72114;SHT31;59989;46.220;19.888;2022-09-21T13:51:18;15.14;68.49
72114;SHT31;59989;46.220;19.888;2022-09-21T13:54:23;15.53;65.30
72114;SHT31;59989;46.220;19.888;2022-09-21T13:57:39;16.05;61.87
72114;SHT31;59989;46.220;19.888;2022-09-21T14:04:23;16.87;55.73
72114;SHT31;59989;46.220;19.888;2022-09-21T14:07:30;17.34;55.43
72114;SHT31;59989;46.220;19.888;2022-09-21T14:10:36;18.84;49.85
72114;SHT31;59989;46.220;19.888;2022-09-21T14:13:43;19.60;47.82
72114;SHT31;59989;46.220;19.888;2022-09-21T14:16:55;20.14;46.08
72114;SHT31;59989;46.220;19.888;2022-09-21T14:19:59;19.75;47.41
72114;SHT31;59989;46.220;19.888;2022-09-21T14:26:34;20.46;46.53
72114;SHT31;59989;46.220;19.888;2022-09-21T14:33:13;21.25;44.57
72114;SHT31;59989;46.220;19.888;2022-09-21T14:36:21;21.89;43.68
72114;SHT31;59989;46.220;19.888;2022-09-21T14:39:34;21.82;42.10
72114;SHT31;59989;46.220;19.888;2022-09-21T14:42:39;20.67;45.03
72114;SHT31;59989;46.220;19.888;2022-09-21T14:46:02;20.35;46.11
72114;SHT31;59989;46.220;19.888;2022-09-21T14:56:29;21.59;43.38
72114;SHT31;59989;46.220;19.888;2022-09-21T14:59:46;21.56;43.04
72114;SHT31;59989;46.220;19.888;2022-09-21T15:18:01;16.51;58.41
72114;SHT31;59989;46.220;19.888;2022-09-21T15:21:22;16.35;57.09
72114;SHT31;59989;46.220;19.888;2022-09-21T15:24:29;16.26;58.26
72114;SHT31;59989;46.220;19.888;2022-09-21T15:27:34;16.17;57.73
72114;SHT31;59989;46.220;19.888;2022-09-21T15:30:41;16.14;58.85
72114;SHT31;59989;46.220;19.888;2022-09-21T15:33:47;16.10;58.75
72114;SHT31;59989;46.220;19.888;2022-09-21T15:36:51;16.08;59.92
72114;SHT31;59989;46.220;19.888;2022-09-21T15:40:05;16.04;60.21
72114;SHT31;59989;46.220;19.888;2022-09-21T15:46:12;15.98;59.40
72114;SHT31;59989;46.220;19.888;2022-09-21T15:49:17;15.93;62.14
72114;SHT31;59989;46.220;19.888;2022-09-21T15:52:33;15.93;60.95
72114;SHT31;59989;46.220;19.888;2022-09-21T15:55:39;15.77;62.13
72114;SHT31;59989;46.220;19.888;2022-09-21T15:58:42;15.73;62.03
72114;SHT31;59989;46.220;19.888;2022-09-21T16:01:52;15.71;61.14
72114;SHT31;59989;46.220;19.888;2022-09-21T16:04:56;15.56;67.11
72114;SHT31;59989;46.220;19.888;2022-09-21T16:14:27;15.02;64.34
72114;SHT31;59989;46.220;19.888;2022-09-21T16:18:02;14.88;65.16
72114;SHT31;59989;46.220;19.888;2022-09-21T16:21:08;14.76;65.12
72114;SHT31;59989;46.220;19.888;2022-09-21T16:24:18;14.60;64.24
72114;SHT31;59989;46.220;19.888;2022-09-21T16:27:25;14.55;65.48
72114;SHT31;59989;46.220;19.888;2022-09-21T16:30:47;14.51;66.38
72114;SHT31;59989;46.220;19.888;2022-09-21T16:34:04;14.36;68.16
72114;SHT31;59989;46.220;19.888;2022-09-21T16:37:22;14.19;69.88
72114;SHT31;59989;46.220;19.888;2022-09-21T16:40:27;13.94;70.56
72114;SHT31;59989;46.220;19.888;2022-09-21T16:43:29;13.75;71.38
72114;SHT31;59989;46.220;19.888;2022-09-21T16:46:32;13.62;72.83
72114;SHT31;59989;46.220;19.888;2022-09-21T16:49:34;13.44;73.92
72114;SHT31;59989;46.220;19.888;2022-09-21T16:52:37;13.39;72.72
72114;SHT31;59989;46.220;19.888;2022-09-21T16:55:40;13.34;73.68
72114;SHT31;59989;46.220;19.888;2022-09-21T16:58:44;13.26;73.25
72114;SHT31;59989;46.220;19.888;2022-09-21T17:01:48;13.16;73.62
72114;SHT31;59989;46.220;19.888;2022-09-21T17:04:57;13.09;72.77
72114;SHT31;59989;46.220;19.888;2022-09-21T17:07:59;13.02;74.83
72114;SHT31;59989;46.220;19.888;2022-09-21T17:11:02;12.95;75.62
72114;SHT31;59989;46.220;19.888;2022-09-21T17:14:05;12.95;75.45
72114;SHT31;59989;46.220;19.888;2022-09-21T17:17:20;12.85;75.33
72114;SHT31;59989;46.220;19.888;2022-09-21T17:20:33;12.81;77.81
72114;SHT31;59989;46.220;19.888;2022-09-21T17:23:36;12.72;75.85
72114;SHT31;59989;46.220;19.888;2022-09-21T17:26:40;12.71;76.24
72114;SHT31;59989;46.220;19.888;2022-09-21T17:29:43;12.62;78.49
72114;SHT31;59989;46.220;19.888;2022-09-21T17:32:50;12.49;78.65
72114;SHT31;59989;46.220;19.888;2022-09-21T17:35:53;12.37;78.55
72114;SHT31;59989;46.220;19.888;2022-09-21T17:38:56;12.23;79.30
72114;SHT31;59989;46.220;19.888;2022-09-21T17:42:16;12.03;80.49
72114;SHT31;59989;46.220;19.888;2022-09-21T17:45:46;11.86;81.22
72114;SHT31;59989;46.220;19.888;2022-09-21T17:48:51;11.79;81.24
72114;SHT31;59989;46.220;19.888;2022-09-21T17:51:54;11.76;80.92
72114;SHT31;59989;46.220;19.888;2022-09-21T17:55:15;11.80;80.45
72114;SHT31;59989;46.220;19.888;2022-09-21T18:01:37;11.82;81.04
72114;SHT31;59989;46.220;19.888;2022-09-21T18:04:41;11.85;80.55
72114;SHT31;59989;46.220;19.888;2022-09-21T18:07:43;11.83;80.23
72114;SHT31;59989;46.220;19.888;2022-09-21T18:21:27;11.69;81.63
72114;SHT31;59989;46.220;19.888;2022-09-21T18:24:30;11.72;81.69
72114;SHT31;59989;46.220;19.888;2022-09-21T18:27:33;11.69;81.64
72114;SHT31;59989;46.220;19.888;2022-09-21T18:30:38;11.65;83.10
72114;SHT31;59989;46.220;19.888;2022-09-21T18:47:18;11.55;84.13
72114;SHT31;59989;46.220;19.888;2022-09-21T18:50:29;11.55;85.92
72114;SHT31;59989;46.220;19.888;2022-09-21T18:53:51;11.46;85.04
72114;SHT31;59989;46.220;19.888;2022-09-21T18:56:55;11.46;84.53
72114;SHT31;59989;46.220;19.888;2022-09-21T18:59:58;11.43;84.89
72114;SHT31;59989;46.220;19.888;2022-09-21T19:03:03;11.43;84.89
72114;SHT31;59989;46.220;19.888;2022-09-21T19:06:36;11.46;84.97
72114;SHT31;59989;46.220;19.888;2022-09-21T19:25:50;11.59;86.10
72114;SHT31;59989;46.220;19.888;2022-09-21T19:32:38;11.54;84.91
72114;SHT31;59989;46.220;19.888;2022-09-21T19:35:40;11.52;84.90
72114;SHT31;59989;46.220;19.888;2022-09-21T19:38:43;11.49;84.91
72114;SHT31;59989;46.220;19.888;2022-09-21T19:42:02;11.42;84.70
72114;SHT31;59989;46.220;19.888;2022-09-21T19:45:34;11.29;84.66
72114;SHT31;59989;46.220;19.888;2022-09-21T19:48:47;11.14;84.81
72114;SHT31;59989;46.220;19.888;2022-09-21T19:51:54;10.94;85.19
72114;SHT31;59989;46.220;19.888;2022-09-21T19:54:57;10.81;85.74
72114;SHT31;59989;46.220;19.888;2022-09-21T19:58:19;10.70;85.80
72114;SHT31;59989;46.220;19.888;2022-09-21T20:01:46;10.53;86.86
72114;SHT31;59989;46.220;19.888;2022-09-21T20:05:20;10.38;87.31
72114;SHT31;59989;46.220;19.888;2022-09-21T20:12:07;10.18;88.23
72114;SHT31;59989;46.220;19.888;2022-09-21T20:15:20;10.03;88.81
72114;SHT31;59989;46.220;19.888;2022-09-21T20:18:38;9.92;89.21
72114;SHT31;59989;46.220;19.888;2022-09-21T20:21:42;9.84;89.39
72114;SHT31;59989;46.220;19.888;2022-09-21T20:24:52;9.71;89.44
72114;SHT31;59989;46.220;19.888;2022-09-21T20:27:56;9.65;89.79
72114;SHT31;59989;46.220;19.888;2022-09-21T20:30:59;9.55;90.08
72114;SHT31;59989;46.220;19.888;2022-09-21T20:34:01;9.47;90.22
72114;SHT31;59989;46.220;19.888;2022-09-21T20:37:14;9.42;90.80
72114;SHT31;59989;46.220;19.888;2022-09-21T20:40:19;9.34;90.65
72114;SHT31;59989;46.220;19.888;2022-09-21T20:43:26;9.29;91.53
72114;SHT31;59989;46.220;19.888;2022-09-21T20:46:33;9.26;92.20
72114;SHT31;59989;46.220;19.888;2022-09-21T20:49:36;9.23;92.39
72114;SHT31;59989;46.220;19.888;2022-09-21T20:52:39;9.25;92.34
72114;SHT31;59989;46.220;19.888;2022-09-21T20:55:54;9.25;92.24
72114;SHT31;59989;46.220;19.888;2022-09-21T20:58:57;9.19;92.51
72114;SHT31;59989;46.220;19.888;2022-09-21T21:02:00;9.12;92.50
72114;SHT31;59989;46.220;19.888;2022-09-21T21:05:03;9.19;92.62
72114;SHT31;59989;46.220;19.888;2022-09-21T21:08:06;9.23;92.29
72114;SHT31;59989;46.220;19.888;2022-09-21T21:11:10;9.27;91.70
72114;SHT31;59989;46.220;19.888;2022-09-21T21:14:12;9.32;91.02
72114;SHT31;59989;46.220;19.888;2022-09-21T21:17:15;9.37;90.40
72114;SHT31;59989;46.220;19.888;2022-09-21T21:20:18;9.42;89.80
72114;SHT31;59989;46.220;19.888;2022-09-21T21:23:20;9.44;89.45
72114;SHT31;59989;46.220;19.888;2022-09-21T21:26:22;9.43;89.32
72114;SHT31;59989;46.220;19.888;2022-09-21T21:29:47;9.46;88.88
72114;SHT31;59989;46.220;19.888;2022-09-21T21:32:52;9.53;88.16
72114;SHT31;59989;46.220;19.888;2022-09-21T21:36:02;9.53;88.21
72114;SHT31;59989;46.220;19.888;2022-09-21T21:39:06;9.48;88.32
72114;SHT31;59989;46.220;19.888;2022-09-21T21:42:08;9.47;88.34
72114;SHT31;59989;46.220;19.888;2022-09-21T21:45:11;9.34;88.69
72114;SHT31;59989;46.220;19.888;2022-09-21T21:48:13;9.16;88.95
72114;SHT31;59989;46.220;19.888;2022-09-21T21:51:16;8.99;89.35
72114;SHT31;59989;46.220;19.888;2022-09-21T21:54:24;8.98;89.88
72114;SHT31;59989;46.220;19.888;2022-09-21T21:57:26;9.09;89.15
72114;SHT31;59989;46.220;19.888;2022-09-21T22:00:29;9.13;89.05
72114;SHT31;59989;46.220;19.888;2022-09-21T22:03:31;9.16;88.87
72114;SHT31;59989;46.220;19.888;2022-09-21T22:06:35;9.20;88.27
72114;SHT31;59989;46.220;19.888;2022-09-21T22:09:37;9.20;88.05
72114;SHT31;59989;46.220;19.888;2022-09-21T22:12:40;9.19;87.99
72114;SHT31;59989;46.220;19.888;2022-09-21T22:15:46;9.15;88.02
72114;SHT31;59989;46.220;19.888;2022-09-21T22:18:49;9.06;88.55
72114;SHT31;59989;46.220;19.888;2022-09-21T22:21:51;8.99;88.85
72114;SHT31;59989;46.220;19.888;2022-09-21T22:24:55;8.81;89.08
72114;SHT31;59989;46.220;19.888;2022-09-21T22:27:58;8.69;89.71
72114;SHT31;59989;46.220;19.888;2022-09-21T22:31:02;8.75;89.61
72114;SHT31;59989;46.220;19.888;2022-09-21T22:34:05;8.75;89.66
72114;SHT31;59989;46.220;19.888;2022-09-21T22:37:07;8.67;89.80
72114;SHT31;59989;46.220;19.888;2022-09-21T22:40:10;8.68;89.47
72114;SHT31;59989;46.220;19.888;2022-09-21T22:43:12;8.67;89.59
72114;SHT31;59989;46.220;19.888;2022-09-21T22:46:14;8.60;89.93
72114;SHT31;59989;46.220;19.888;2022-09-21T22:49:20;8.58;89.95
72114;SHT31;59989;46.220;19.888;2022-09-21T22:52:22;8.58;90.01
72114;SHT31;59989;46.220;19.888;2022-09-21T22:55:24;8.55;89.84
72114;SHT31;59989;46.220;19.888;2022-09-21T22:58:27;8.55;89.86
72114;SHT31;59989;46.220;19.888;2022-09-21T23:01:36;8.63;89.80
72114;SHT31;59989;46.220;19.888;2022-09-21T23:04:38;8.58;89.68
72114;SHT31;59989;46.220;19.888;2022-09-21T23:07:41;8.60;89.49
72114;SHT31;59989;46.220;19.888;2022-09-21T23:10:43;8.65;89.20
72114;SHT31;59989;46.220;19.888;2022-09-21T23:13:46;8.67;89.37
72114;SHT31;59989;46.220;19.888;2022-09-21T23:16:48;8.61;89.42
72114;SHT31;59989;46.220;19.888;2022-09-21T23:19:51;8.57;89.76
72114;SHT31;59989;46.220;19.888;2022-09-21T23:22:53;8.54;89.57
72114;SHT31;59989;46.220;19.888;2022-09-21T23:29:05;8.47;89.97
72114;SHT31;59989;46.220;19.888;2022-09-21T23:32:10;8.43;89.81